Time;durP1;ratioP1;P1;durP2;ratioP2;P2;SDS_P1;SDS_P2;PMS_P1;PMS_P2;Temp;Humidity;BMP_temperature;BMP_pressure;BME280_temperature;BME280_humidity;BME280_pressure;Samples;Min_cycle;Max_cycle;Signal;HPM_P1;HPM_P2
2023/03/27 00:01:10;;;;;;;19.52;18.42;;;;;;;;;;4999911;28;20297;-83
2023/03/27 00:03:38;;;;;;;19.83;18.05;;;;;;;;;;4997885;28;20220;-83
2023/03/27 00:06:07;;;;;;;20.85;18.95;;;;;;;;;;4999021;28;20196;-84
2023/03/27 00:08:35;;;;;;;20.35;18.80;;;;;;;;;;4999255;28;20265;-83
2023/03/27 00:11:02;;;;;;;19.73;18.50;;;;;;;;;;4999057;28;20239;-84
2023/03/27 00:13:31;;;;;;;20.80;18.90;;;;;;;;;;4997664;28;20199;-83
2023/03/27 00:15:58;;;;;;;20.60;19.10;;;;;;;;;;4997121;28;20187;-83
2023/03/27 00:18:26;;;;;;;19.83;18.63;;;;;;;;;;4998271;28;20729;-83
2023/03/27 00:20:54;;;;;;;19.73;18.25;;;;;;;;;;4998559;28;20234;-83
2023/03/27 00:23:21;;;;;;;19.48;18.00;;;;;;;;;;4997804;28;20206;-83
2023/03/27 00:25:48;;;;;;;20.17;18.38;;;;;;;;;;4995948;28;20217;-83
2023/03/27 00:28:15;;;;;;;19.60;18.20;;;;;;;;;;4997791;28;20291;-83
2023/03/27 00:30:44;;;;;;;19.60;18.45;;;;;;;;;;4998068;28;20211;-83
2023/03/27 00:33:11;;;;;;;19.48;18.25;;;;;;;;;;4997373;28;20210;-83
2023/03/27 00:35:39;;;;;;;20.95;18.90;;;;;;;;;;4995490;28;20624;-83
2023/03/27 00:38:06;;;;;;;19.00;17.65;;;;;;;;;;4994834;28;20772;-83
2023/03/27 00:40:33;;;;;;;19.30;18.02;;;;;;;;;;4996020;28;20678;-83
2023/03/27 00:43:01;;;;;;;20.67;19.25;;;;;;;;;;4997257;28;20217;-83
2023/03/27 00:45:30;;;;;;;19.70;18.13;;;;;;;;;;4997253;28;20597;-84
2023/03/27 00:47:59;;;;;;;20.17;18.63;;;;;;;;;;4999727;28;20250;-83
2023/03/27 00:50:30;;;;;;;19.60;18.25;;;;;;;;;;4999317;28;20214;-84
2023/03/27 00:52:59;;;;;;;19.58;18.08;;;;;;;;;;4999293;28;20214;-83
2023/03/27 00:55:28;;;;;;;19.48;18.30;;;;;;;;;;5000631;28;20212;-83
2023/03/27 00:57:58;;;;;;;20.38;19.08;;;;;;;;;;5000725;28;20246;-83
2023/03/27 01:00:25;;;;;;;19.88;18.65;;;;;;;;;;5001426;28;20203;-83
2023/03/27 01:02:52;;;;;;;21.75;20.08;;;;;;;;;;5001345;28;20204;-83
2023/03/27 01:05:21;;;;;;;19.00;17.90;;;;;;;;;;5000329;28;20220;-83
2023/03/27 01:07:49;;;;;;;20.00;18.48;;;;;;;;;;5000237;28;20210;-83
2023/03/27 01:10:17;;;;;;;21.13;19.33;;;;;;;;;;5000815;28;20206;-83
2023/03/27 01:12:47;;;;;;;19.73;18.30;;;;;;;;;;5001392;28;20205;-83
2023/03/27 01:15:22;;;;;;;20.67;18.77;;;;;;;;;;5000724;28;20233;-83
2023/03/27 01:18:01;;;;;;;21.17;19.10;;;;;;;;;;4999112;28;20635;-83
2023/03/27 01:20:45;;;;;;;19.90;18.45;;;;;;;;;;4999564;28;20600;-83
2023/03/27 01:23:27;;;;;;;19.88;18.70;;;;;;;;;;4999994;28;20542;-83
2023/03/27 01:26:04;;;;;;;21.25;19.92;;;;;;;;;;4984712;28;20272;-83
2023/03/27 01:28:35;;;;;;;19.88;18.67;;;;;;;;;;4997422;28;20284;-83
2023/03/27 01:31:08;;;;;;;18.98;17.77;;;;;;;;;;5000275;28;20552;-83
2023/03/27 01:33:46;;;;;;;19.75;18.60;;;;;;;;;;4999069;28;20205;-83
2023/03/27 01:36:25;;;;;;;19.27;17.90;;;;;;;;;;4999091;28;20238;-83
2023/03/27 01:39:03;;;;;;;21.40;19.55;;;;;;;;;;5003842;28;20229;-83
2023/03/27 01:41:32;;;;;;;19.73;18.60;;;;;;;;;;4999369;28;20256;-83
2023/03/27 01:44:01;;;;;;;19.88;18.35;;;;;;;;;;4999116;28;20206;-83
2023/03/27 01:46:31;;;;;;;19.95;18.17;;;;;;;;;;4998537;28;20272;-83
2023/03/27 01:49:00;;;;;;;19.40;18.10;;;;;;;;;;4999541;28;20229;-83
2023/03/27 01:51:29;;;;;;;19.98;18.58;;;;;;;;;;4999328;28;20273;-83
2023/03/27 01:53:59;;;;;;;20.58;18.95;;;;;;;;;;4999239;28;20203;-83
2023/03/27 01:56:31;;;;;;;20.63;19.35;;;;;;;;;;4998716;28;20305;-85
2023/03/27 01:59:02;;;;;;;20.13;18.67;;;;;;;;;;4999351;28;20227;-83
2023/03/27 02:01:32;;;;;;;19.65;18.15;;;;;;;;;;4999570;28;20278;-83
2023/03/27 02:04:01;;;;;;;20.75;19.13;;;;;;;;;;4998729;28;20210;-83
2023/03/27 02:06:32;;;;;;;20.30;19.10;;;;;;;;;;4996757;28;20220;-83
2023/03/27 02:09:02;;;;;;;19.88;18.40;;;;;;;;;;4997485;28;20241;-83
2023/03/27 02:11:31;;;;;;;19.92;18.42;;;;;;;;;;4998629;28;20224;-83
2023/03/27 02:13:58;;;;;;;19.55;18.00;;;;;;;;;;4998739;28;20218;-83
2023/03/27 02:16:32;;;;;;;19.45;17.92;;;;;;;;;;4997297;28;20573;-83
2023/03/27 02:19:00;;;;;;;19.20;17.75;;;;;;;;;;4998149;28;20218;-83
2023/03/27 02:21:30;;;;;;;19.25;18.15;;;;;;;;;;4998733;28;20206;-83
2023/03/27 02:24:00;;;;;;;20.05;18.70;;;;;;;;;;4998409;28;20662;-83
2023/03/27 02:26:28;;;;;;;20.33;18.70;;;;;;;;;;4996800;28;20725;-83
2023/03/27 02:29:01;;;;;;;20.02;18.35;;;;;;;;;;4997954;28;20256;-84
2023/03/27 02:31:35;;;;;;;21.00;19.30;;;;;;;;;;4998184;28;20245;-83
2023/03/27 02:34:15;;;;;;;20.38;18.65;;;;;;;;;;4998004;28;20226;-83
2023/03/27 02:36:46;;;;;;;20.95;19.50;;;;;;;;;;4997923;28;20194;-83
2023/03/27 02:39:14;;;;;;;19.00;18.00;;;;;;;;;;4995749;28;20224;-83
2023/03/27 02:41:44;;;;;;;20.77;19.10;;;;;;;;;;4997472;28;20297;-83
2023/03/27 02:44:14;;;;;;;20.00;18.75;;;;;;;;;;4998183;28;20194;-83
2023/03/27 02:46:45;;;;;;;19.92;18.23;;;;;;;;;;4996928;28;20260;-83
2023/03/27 02:49:13;;;;;;;20.88;18.98;;;;;;;;;;4997347;28;20229;-83
2023/03/27 02:51:42;;;;;;;20.05;18.67;;;;;;;;;;4997130;28;20205;-83
2023/03/27 02:54:12;;;;;;;20.10;18.90;;;;;;;;;;4997284;28;20670;-83
2023/03/27 02:56:43;;;;;;;19.65;18.27;;;;;;;;;;4997365;28;20186;-83
2023/03/27 02:59:11;;;;;;;19.35;18.13;;;;;;;;;;4996881;28;20227;-83
2023/03/27 03:01:43;;;;;;;21.88;19.48;;;;;;;;;;4997449;28;20221;-83
2023/03/27 03:04:12;;;;;;;19.02;17.92;;;;;;;;;;4997882;28;20214;-83
2023/03/27 03:06:41;;;;;;;19.40;18.00;;;;;;;;;;4997494;28;20214;-83
2023/03/27 03:09:08;;;;;;;20.13;18.73;;;;;;;;;;4996217;28;20318;-83
2023/03/27 03:11:37;;;;;;;19.75;18.35;;;;;;;;;;4997573;28;20682;-83
2023/03/27 03:14:04;;;;;;;21.17;19.23;;;;;;;;;;4998087;28;20208;-83
2023/03/27 03:16:32;;;;;;;20.13;18.70;;;;;;;;;;4996836;28;20605;-83
2023/03/27 03:19:00;;;;;;;19.10;18.08;;;;;;;;;;4997393;28;20227;-83
2023/03/27 03:21:27;;;;;;;21.00;18.90;;;;;;;;;;4997869;28;20213;-83
2023/03/27 03:23:54;;;;;;;22.38;20.88;;;;;;;;;;4997148;28;20209;-83
2023/03/27 03:26:21;;;;;;;32.00;28.60;;;;;;;;;;4997258;28;20206;-83
2023/03/27 03:28:50;;;;;;;23.88;22.08;;;;;;;;;;4996591;28;20693;-83
2023/03/27 03:31:17;;;;;;;23.05;21.15;;;;;;;;;;4996148;28;20615;-83
2023/03/27 03:33:45;;;;;;;57.85;37.33;;;;;;;;;;4995793;28;20564;-83
2023/03/27 03:36:13;;;;;;;23.27;21.48;;;;;;;;;;4996756;28;20208;-83
2023/03/27 03:38:41;;;;;;;20.00;18.52;;;;;;;;;;4997076;28;20633;-83
2023/03/27 03:41:08;;;;;;;20.30;18.90;;;;;;;;;;4997370;28;20207;-83
2023/03/27 03:43:35;;;;;;;20.80;19.23;;;;;;;;;;4997008;28;20225;-83
2023/03/27 03:46:02;;;;;;;19.75;18.45;;;;;;;;;;4996395;28;20268;-83
2023/03/27 03:48:29;;;;;;;20.83;19.13;;;;;;;;;;4997321;28;20229;-83
2023/03/27 03:50:56;;;;;;;20.70;18.70;;;;;;;;;;4997284;28;20631;-83
2023/03/27 03:53:25;;;;;;;20.55;18.67;;;;;;;;;;4996842;28;20239;-82
2023/03/27 03:55:53;;;;;;;20.73;19.50;;;;;;;;;;4995044;28;20246;-82
2023/03/27 03:58:20;;;;;;;21.67;18.95;;;;;;;;;;4996816;28;20229;-83
2023/03/27 04:00:47;;;;;;;22.10;20.02;;;;;;;;;;4997404;28;20207;-83
2023/03/27 04:03:14;;;;;;;20.25;18.83;;;;;;;;;;4997121;28;20219;-83
2023/03/27 04:05:41;;;;;;;30.05;20.27;;;;;;;;;;4995697;28;20210;-84
2023/03/27 04:08:08;;;;;;;20.30;19.10;;;;;;;;;;4996776;28;20231;-83
2023/03/27 04:10:38;;;;;;;20.95;19.40;;;;;;;;;;4997026;28;20285;-83
2023/03/27 04:13:05;;;;;;;19.45;18.33;;;;;;;;;;5002395;28;20233;-83
2023/03/27 04:15:32;;;;;;;20.63;18.98;;;;;;;;;;5015476;28;20214;-84
2023/03/27 04:17:59;;;;;;;20.15;18.95;;;;;;;;;;5014846;28;20218;-84
2023/03/27 04:20:26;;;;;;;22.80;20.45;;;;;;;;;;5006624;28;20249;-83
2023/03/27 04:22:54;;;;;;;22.13;20.38;;;;;;;;;;5004018;28;20202;-84
2023/03/27 04:25:22;;;;;;;21.25;19.67;;;;;;;;;;5003435;28;20220;-83
2023/03/27 04:27:51;;;;;;;20.90;19.48;;;;;;;;;;5003247;28;20611;-83
2023/03/27 04:30:21;;;;;;;21.42;19.40;;;;;;;;;;5002947;28;20226;-83
2023/03/27 04:32:48;;;;;;;21.00;19.27;;;;;;;;;;5003493;28;20205;-83
2023/03/27 04:35:15;;;;;;;22.88;21.20;;;;;;;;;;5002350;28;20248;-83
2023/03/27 04:37:43;;;;;;;22.00;20.40;;;;;;;;;;5002099;28;20206;-83
2023/03/27 04:40:12;;;;;;;23.02;20.98;;;;;;;;;;5002454;28;20201;-83
2023/03/27 04:42:41;;;;;;;21.00;19.60;;;;;;;;;;5000964;28;20256;-83
2023/03/27 04:45:11;;;;;;;21.35;19.80;;;;;;;;;;5000919;28;20281;-83
2023/03/27 04:47:38;;;;;;;20.30;19.20;;;;;;;;;;5000431;28;20208;-82
2023/03/27 04:50:05;;;;;;;20.95;19.52;;;;;;;;;;5001681;28;20222;-83
2023/03/27 04:52:32;;;;;;;20.08;18.70;;;;;;;;;;5001826;28;20206;-82
2023/03/27 04:55:00;;;;;;;21.05;19.40;;;;;;;;;;5000948;28;20620;-83
2023/03/27 04:57:29;;;;;;;20.90;19.15;;;;;;;;;;4983540;28;20265;-83
2023/03/27 04:59:56;;;;;;;23.55;21.40;;;;;;;;;;5001249;28;20202;-83
2023/03/27 05:02:26;;;;;;;19.60;18.50;;;;;;;;;;5000879;28;20666;-83
2023/03/27 05:04:57;;;;;;;19.23;18.05;;;;;;;;;;5000150;28;20206;-83
2023/03/27 05:07:24;;;;;;;18.67;17.40;;;;;;;;;;5000623;28;20295;-83
2023/03/27 05:09:51;;;;;;;18.83;17.65;;;;;;;;;;5003515;28;20226;-80
2023/03/27 05:12:18;;;;;;;20.10;18.85;;;;;;;;;;5004720;28;20623;-80
2023/03/27 05:14:47;;;;;;;19.42;17.92;;;;;;;;;;5003451;28;20203;-80
2023/03/27 05:17:14;;;;;;;20.27;18.33;;;;;;;;;;5003849;28;20201;-80
2023/03/27 05:19:44;;;;;;;20.35;18.80;;;;;;;;;;5004257;28;20230;-80
2023/03/27 05:22:11;;;;;;;22.85;21.00;;;;;;;;;;5002776;28;20214;-80
2023/03/27 05:24:38;;;;;;;21.40;19.95;;;;;;;;;;5000742;28;20206;-80
2023/03/27 05:27:05;;;;;;;20.67;18.98;;;;;;;;;;5002676;28;20675;-80
2023/03/27 05:29:32;;;;;;;20.77;19.17;;;;;;;;;;5003587;28;20230;-80
2023/03/27 05:31:59;;;;;;;20.98;19.42;;;;;;;;;;5002601;28;20265;-80
2023/03/27 05:34:27;;;;;;;20.13;18.38;;;;;;;;;;5003534;28;20206;-80
2023/03/27 05:36:56;;;;;;;20.10;18.60;;;;;;;;;;5003056;28;20273;-80
2023/03/27 05:39:26;;;;;;;22.23;20.42;;;;;;;;;;5002880;28;20280;-80
2023/03/27 05:41:53;;;;;;;19.67;18.45;;;;;;;;;;5002290;28;20206;-80
2023/03/27 05:44:20;;;;;;;20.58;18.85;;;;;;;;;;5001786;28;20199;-80
2023/03/27 05:46:47;;;;;;;20.15;18.55;;;;;;;;;;4999704;28;20213;-80
2023/03/27 05:49:15;;;;;;;21.27;19.70;;;;;;;;;;5002818;28;20646;-80
2023/03/27 05:51:42;;;;;;;21.38;19.63;;;;;;;;;;5002735;28;20666;-80
2023/03/27 05:54:10;;;;;;;21.38;19.42;;;;;;;;;;5003348;28;20206;-80
2023/03/27 05:56:37;;;;;;;20.52;18.73;;;;;;;;;;5001924;28;20644;-80
2023/03/27 05:59:04;;;;;;;19.88;18.42;;;;;;;;;;5002496;28;20230;-80
2023/03/27 06:01:33;;;;;;;19.40;18.00;;;;;;;;;;4998754;28;20208;-80
2023/03/27 06:04:00;;;;;;;21.05;19.30;;;;;;;;;;4998935;28;20218;-80
2023/03/27 06:06:27;;;;;;;21.23;19.48;;;;;;;;;;4998033;28;20215;-80
2023/03/27 06:08:55;;;;;;;21.08;19.15;;;;;;;;;;5000359;28;20228;-80
2023/03/27 06:11:24;;;;;;;21.27;19.55;;;;;;;;;;5001136;28;20712;-80
2023/03/27 06:13:51;;;;;;;20.48;18.95;;;;;;;;;;5000667;28;20214;-80
2023/03/27 06:16:19;;;;;;;19.88;18.40;;;;;;;;;;5000646;28;20210;-80
2023/03/27 06:18:46;;;;;;;20.60;19.00;;;;;;;;;;5001843;28;20317;-80
2023/03/27 06:21:13;;;;;;;20.38;18.80;;;;;;;;;;5001353;28;20240;-80
2023/03/27 06:23:40;;;;;;;22.33;19.80;;;;;;;;;;5002224;28;20206;-80
2023/03/27 06:26:07;;;;;;;21.48;19.35;;;;;;;;;;5001504;28;20211;-81
2023/03/27 06:28:38;;;;;;;20.48;19.23;;;;;;;;;;5001082;28;20242;-80
2023/03/27 06:31:05;;;;;;;20.92;18.90;;;;;;;;;;5001649;28;20249;-80
2023/03/27 06:33:33;;;;;;;21.50;19.70;;;;;;;;;;5001658;28;20202;-79
2023/03/27 06:36:00;;;;;;;23.35;21.08;;;;;;;;;;5001978;28;20409;-80
2023/03/27 06:38:30;;;;;;;20.23;18.90;;;;;;;;;;5002720;28;20231;-80
2023/03/27 06:40:58;;;;;;;20.80;19.52;;;;;;;;;;5005550;28;20215;-81
2023/03/27 06:43:25;;;;;;;20.50;19.00;;;;;;;;;;5004774;28;20658;-81
2023/03/27 06:45:53;;;;;;;22.95;21.08;;;;;;;;;;5002949;28;20218;-80
2023/03/27 06:48:22;;;;;;;21.10;19.35;;;;;;;;;;5002220;28;20315;-80
2023/03/27 06:50:50;;;;;;;20.10;18.88;;;;;;;;;;5002487;28;20252;-80
2023/03/27 06:53:18;;;;;;;19.98;18.70;;;;;;;;;;5002657;28;20206;-79
2023/03/27 06:55:45;;;;;;;20.20;19.08;;;;;;;;;;5001775;28;20206;-80
2023/03/27 06:58:13;;;;;;;19.90;18.60;;;;;;;;;;5002172;28;20289;-80
2023/03/27 07:00:40;;;;;;;20.23;18.30;;;;;;;;;;5002503;28;20253;-80
2023/03/27 07:03:10;;;;;;;21.55;19.95;;;;;;;;;;5001358;28;20256;-80
2023/03/27 07:05:38;;;;;;;21.30;19.33;;;;;;;;;;5002666;28;20204;-80
2023/03/27 07:08:05;;;;;;;20.73;19.33;;;;;;;;;;5002778;28;20230;-80
2023/03/27 07:10:33;;;;;;;20.55;19.00;;;;;;;;;;5002446;28;20218;-80
2023/03/27 07:13:00;;;;;;;20.33;18.92;;;;;;;;;;5002629;28;20215;-80
2023/03/27 07:15:27;;;;;;;21.20;19.90;;;;;;;;;;5002310;28;20569;-80
2023/03/27 07:17:55;;;;;;;22.85;21.10;;;;;;;;;;5001392;28;20234;-80
2023/03/27 07:20:26;;;;;;;21.67;20.27;;;;;;;;;;5000262;28;20206;-79
2023/03/27 07:22:53;;;;;;;20.70;19.10;;;;;;;;;;5002231;28;20204;-80
2023/03/27 07:25:20;;;;;;;19.88;18.58;;;;;;;;;;5001617;28;20779;-80
2023/03/27 07:27:47;;;;;;;21.08;19.45;;;;;;;;;;5001466;28;20206;-79
2023/03/27 07:30:15;;;;;;;20.05;18.50;;;;;;;;;;5000639;28;20284;-80
2023/03/27 07:32:43;;;;;;;20.65;18.88;;;;;;;;;;5001421;28;20209;-80
2023/03/27 07:35:11;;;;;;;21.85;20.15;;;;;;;;;;5001303;28;20215;-80
2023/03/27 07:37:41;;;;;;;20.23;19.05;;;;;;;;;;5000829;28;20285;-80
2023/03/27 07:40:12;;;;;;;18.80;17.75;;;;;;;;;;5000714;28;20269;-80
2023/03/27 07:42:43;;;;;;;20.02;18.30;;;;;;;;;;5002097;28;20237;-80
2023/03/27 07:45:11;;;;;;;20.02;18.92;;;;;;;;;;5000800;28;20679;-80
2023/03/27 07:47:38;;;;;;;19.70;18.70;;;;;;;;;;4999823;28;20217;-80
2023/03/27 07:50:08;;;;;;;21.17;19.40;;;;;;;;;;5001032;28;20206;-80
2023/03/27 07:52:35;;;;;;;21.00;19.08;;;;;;;;;;5000905;28;20244;-80
2023/03/27 07:55:05;;;;;;;20.85;19.15;;;;;;;;;;5000398;28;20198;-80
2023/03/27 07:57:33;;;;;;;20.20;18.63;;;;;;;;;;5001471;28;20211;-80
2023/03/27 08:00:00;;;;;;;19.52;18.52;;;;;;;;;;5001819;28;20202;-80
2023/03/27 08:02:28;;;;;;;19.92;18.27;;;;;;;;;;5001290;28;20303;-80
2023/03/27 08:04:55;;;;;;;19.60;18.38;;;;;;;;;;5002509;28;20298;-80
2023/03/27 08:07:23;;;;;;;21.00;19.30;;;;;;;;;;5001123;28;20212;-80
2023/03/27 08:09:56;;;;;;;20.65;19.30;;;;;;;;;;5001300;28;20254;-80
2023/03/27 08:12:24;;;;;;;19.60;18.52;;;;;;;;;;5001717;28;20206;-79
2023/03/27 08:14:53;;;;;;;20.38;19.10;;;;;;;;;;5001482;28;20209;-80
2023/03/27 08:17:20;;;;;;;22.10;20.77;;;;;;;;;;5000283;28;20671;-80
2023/03/27 08:19:47;;;;;;;20.80;19.40;;;;;;;;;;5000926;28;20230;-80
2023/03/27 08:22:14;;;;;;;20.15;19.05;;;;;;;;;;5000517;28;20202;-80
2023/03/27 08:24:41;;;;;;;21.08;19.73;;;;;;;;;;5000012;28;20214;-80
2023/03/27 08:27:08;;;;;;;21.98;20.15;;;;;;;;;;4999613;28;20231;-80
2023/03/27 08:29:37;;;;;;;21.67;19.63;;;;;;;;;;4999404;28;20234;-79
2023/03/27 08:32:05;;;;;;;20.10;18.90;;;;;;;;;;4998737;28;20770;-80
2023/03/27 08:34:32;;;;;;;20.83;19.45;;;;;;;;;;4999939;28;20208;-80
2023/03/27 08:36:59;;;;;;;20.75;19.33;;;;;;;;;;4998919;28;20749;-80
2023/03/27 08:39:29;;;;;;;19.88;18.80;;;;;;;;;;5000385;28;20230;-80
2023/03/27 08:41:57;;;;;;;19.33;18.23;;;;;;;;;;4999214;28;20206;-80
2023/03/27 08:44:25;;;;;;;19.90;18.70;;;;;;;;;;5010091;28;20235;-79
2023/03/27 08:46:56;;;;;;;19.58;18.48;;;;;;;;;;5028147;28;20174;-78
2023/03/27 08:49:25;;;;;;;21.27;19.70;;;;;;;;;;5056952;28;20237;-80
2023/03/27 08:51:54;;;;;;;19.55;18.45;;;;;;;;;;5043619;28;20319;-83
2023/03/27 08:54:22;;;;;;;20.50;19.20;;;;;;;;;;5043511;28;20206;-80
2023/03/27 08:56:50;;;;;;;20.30;18.90;;;;;;;;;;5042541;28;20213;-81
2023/03/27 08:59:18;;;;;;;20.35;18.70;;;;;;;;;;5043238;28;20253;-80
2023/03/27 09:01:47;;;;;;;21.30;19.83;;;;;;;;;;5043610;28;20209;-80
2023/03/27 09:04:22;;;;;;;21.10;19.40;;;;;;;;;;5043130;28;20205;-80
2023/03/27 09:06:53;;;;;;;20.65;19.08;;;;;;;;;;5042972;28;20691;-80
2023/03/27 09:09:27;;;;;;;20.88;19.48;;;;;;;;;;5046188;28;20253;-80
2023/03/27 09:11:59;;;;;;;19.27;18.27;;;;;;;;;;5045428;28;20221;-80
2023/03/27 09:14:30;;;;;;;22.08;20.00;;;;;;;;;;5046068;28;20187;-80
2023/03/27 09:17:00;;;;;;;19.50;18.42;;;;;;;;;;5044576;28;20186;-80
2023/03/27 09:19:32;;;;;;;19.88;18.73;;;;;;;;;;5045771;28;20226;-80
2023/03/27 09:22:01;;;;;;;19.30;18.30;;;;;;;;;;5045416;28;20182;-80
2023/03/27 09:24:29;;;;;;;20.38;19.10;;;;;;;;;;5045394;28;20301;-80
2023/03/27 09:26:57;;;;;;;20.27;19.17;;;;;;;;;;5041889;28;20208;-79
2023/03/27 09:29:28;;;;;;;21.15;19.40;;;;;;;;;;5043589;28;20232;-79
2023/03/27 09:31:56;;;;;;;21.02;19.83;;;;;;;;;;5044385;28;20282;-82
2023/03/27 09:34:25;;;;;;;20.65;19.35;;;;;;;;;;5043995;28;20210;-83
2023/03/27 09:36:54;;;;;;;21.60;20.45;;;;;;;;;;5041714;28;20205;-83
2023/03/27 09:39:25;;;;;;;22.17;19.90;;;;;;;;;;5041490;28;20290;-81
2023/03/27 09:41:54;;;;;;;21.27;20.08;;;;;;;;;;5024646;28;20212;-84
2023/03/27 09:44:24;;;;;;;20.58;19.48;;;;;;;;;;5027071;28;20213;-81
2023/03/27 09:46:55;;;;;;;20.70;19.70;;;;;;;;;;5029856;28;20234;-81
2023/03/27 09:49:22;;;;;;;22.08;20.65;;;;;;;;;;5046619;28;20226;-81
2023/03/27 09:51:50;;;;;;;23.50;21.92;;;;;;;;;;5047110;28;20225;-80
2023/03/27 09:54:20;;;;;;;22.70;21.30;;;;;;;;;;5046952;28;20207;-81
2023/03/27 09:56:48;;;;;;;22.27;20.85;;;;;;;;;;5045687;28;20299;-81
2023/03/27 09:59:24;;;;;;;22.58;21.38;;;;;;;;;;5046379;28;20230;-81
2023/03/27 10:01:52;;;;;;;21.77;20.20;;;;;;;;;;5046578;28;20262;-81
2023/03/27 10:04:21;;;;;;;22.88;21.20;;;;;;;;;;5046678;28;20212;-81
2023/03/27 10:06:50;;;;;;;22.60;21.27;;;;;;;;;;5045742;28;20674;-80
2023/03/27 10:09:23;;;;;;;22.10;20.80;;;;;;;;;;5046114;28;20230;-80
2023/03/27 10:11:50;;;;;;;24.77;23.27;;;;;;;;;;5047738;28;20246;-84
2023/03/27 10:14:19;;;;;;;22.65;20.67;;;;;;;;;;5045546;28;20307;-81
2023/03/27 10:16:46;;;;;;;22.15;20.95;;;;;;;;;;5045994;28;20205;-80
2023/03/27 10:19:21;;;;;;;22.42;21.02;;;;;;;;;;5025310;28;20320;-80
2023/03/27 10:21:48;;;;;;;22.00;20.75;;;;;;;;;;5026269;28;20206;-80
2023/03/27 10:24:20;;;;;;;26.17;24.17;;;;;;;;;;5027367;28;20218;-81
2023/03/27 10:26:49;;;;;;;26.52;24.38;;;;;;;;;;5026000;28;20458;-81
2023/03/27 10:29:21;;;;;;;22.65;21.45;;;;;;;;;;5026093;28;20267;-79
2023/03/27 10:31:50;;;;;;;22.95;21.27;;;;;;;;;;5026256;28;20285;-80
2023/03/27 10:34:32;;;;;;;23.40;21.80;;;;;;;;;;5025923;28;20208;-80
2023/03/27 10:37:00;;;;;;;22.87;21.40;;;;;;;;;;5023227;28;20538;-80
2023/03/27 10:39:28;;;;;;;21.98;20.77;;;;;;;;;;5023125;28;20812;-80
2023/03/27 10:41:57;;;;;;;23.23;21.83;;;;;;;;;;5022596;28;20203;-84
2023/03/27 10:44:27;;;;;;;21.95;20.40;;;;;;;;;;5023498;28;20216;-80
2023/03/27 10:46:54;;;;;;;23.13;21.53;;;;;;;;;;5022184;28;20561;-81
2023/03/27 10:49:27;;;;;;;23.60;22.10;;;;;;;;;;5023555;28;20544;-80
2023/03/27 10:51:58;;;;;;;22.17;20.98;;;;;;;;;;5023525;28;20208;-80
2023/03/27 10:54:31;;;;;;;21.73;20.63;;;;;;;;;;5024010;28;20198;-85
2023/03/27 10:57:02;;;;;;;22.60;21.40;;;;;;;;;;5022230;28;20638;-81
2023/03/27 10:59:30;;;;;;;23.00;21.58;;;;;;;;;;5023727;28;21279;-80
2023/03/27 11:02:01;;;;;;;22.60;21.40;;;;;;;;;;5023070;28;20252;-80
2023/03/27 11:04:33;;;;;;;22.95;21.35;;;;;;;;;;5023629;28;20303;-80
2023/03/27 11:07:02;;;;;;;22.55;21.25;;;;;;;;;;5023344;28;20206;-80
2023/03/27 11:09:31;;;;;;;22.43;21.10;;;;;;;;;;5021158;28;20314;-80
2023/03/27 11:12:03;;;;;;;22.35;21.15;;;;;;;;;;5022124;28;20481;-79
2023/03/27 11:14:33;;;;;;;22.90;21.60;;;;;;;;;;5022317;28;20204;-80
2023/03/27 11:17:03;;;;;;;23.05;21.05;;;;;;;;;;5021289;28;20460;-82
2023/03/27 11:19:39;;;;;;;22.00;20.55;;;;;;;;;;5022317;28;20285;-82
2023/03/27 11:22:08;;;;;;;21.70;20.40;;;;;;;;;;5016137;28;20691;-84
2023/03/27 11:24:38;;;;;;;20.90;19.60;;;;;;;;;;5017969;28;20454;-80
2023/03/27 11:27:11;;;;;;;22.90;21.60;;;;;;;;;;5017311;28;20433;-81
2023/03/27 11:29:43;;;;;;;23.20;21.90;;;;;;;;;;5019557;28;20291;-83
2023/03/27 11:32:14;;;;;;;22.50;21.00;;;;;;;;;;5017292;28;20500;-81
2023/03/27 11:34:42;;;;;;;21.73;20.52;;;;;;;;;;5017506;28;20476;-82
2023/03/27 11:37:15;;;;;;;20.73;19.53;;;;;;;;;;5016654;28;20240;-81
2023/03/27 11:39:44;;;;;;;21.50;20.30;;;;;;;;;;5017687;28;20562;-78
2023/03/27 11:42:15;;;;;;;20.70;19.60;;;;;;;;;;5016967;28;20450;-79
2023/03/27 11:44:42;;;;;;;22.35;21.02;;;;;;;;;;5019750;28;20443;-79
2023/03/27 11:47:24;;;;;;;22.33;20.83;;;;;;;;;;5019640;28;20209;-79
2023/03/27 11:50:10;;;;;;;20.88;19.40;;;;;;;;;;5017781;28;20496;-83
2023/03/27 11:52:40;;;;;;;19.70;18.70;;;;;;;;;;5019895;28;20218;-79
2023/03/27 11:55:11;;;;;;;20.38;19.27;;;;;;;;;;5019902;28;20446;-79
2023/03/27 11:57:44;;;;;;;20.98;19.77;;;;;;;;;;5018995;28;20842;-80
2023/03/27 12:00:18;;;;;;;19.00;18.05;;;;;;;;;;5019977;28;20205;-79
2023/03/27 12:03:06;;;;;;;20.70;19.55;;;;;;;;;;5020854;28;20619;-79
2023/03/27 12:05:37;;;;;;;20.80;19.40;;;;;;;;;;5016964;28;20215;-78
2023/03/27 12:08:08;;;;;;;20.37;19.17;;;;;;;;;;5022187;28;20231;-79
2023/03/27 12:10:37;;;;;;;21.45;20.35;;;;;;;;;;5021156;28;20898;-79
2023/03/27 12:13:30;;;;;;;20.63;19.45;;;;;;;;;;5021028;28;20323;-79
2023/03/27 12:16:04;;;;;;;20.27;19.25;;;;;;;;;;5029221;28;20178;-78
2023/03/27 12:18:35;;;;;;;21.80;20.27;;;;;;;;;;5035672;28;20225;-79
2023/03/27 12:21:07;;;;;;;21.02;19.63;;;;;;;;;;5036144;28;20447;-80
2023/03/27 12:23:43;;;;;;;20.33;19.23;;;;;;;;;;5026155;28;20577;-79
2023/03/27 12:26:20;;;;;;;20.80;19.47;;;;;;;;;;5020550;28;20428;-82
2023/03/27 12:28:54;;;;;;;21.40;20.17;;;;;;;;;;5021786;28;20569;-79
2023/03/27 12:31:36;;;;;;;21.85;20.65;;;;;;;;;;5022332;28;20237;-79
2023/03/27 12:34:05;;;;;;;21.67;20.47;;;;;;;;;;5019709;28;20218;-79
2023/03/27 12:36:35;;;;;;;22.25;21.05;;;;;;;;;;5023738;28;20463;-79
2023/03/27 12:39:03;;;;;;;21.77;20.58;;;;;;;;;;5021173;28;20311;-79
2023/03/27 12:41:32;;;;;;;23.10;21.90;;;;;;;;;;5025396;28;20214;-79
2023/03/27 12:44:02;;;;;;;22.92;21.55;;;;;;;;;;5025886;28;20196;-79
2023/03/27 12:46:33;;;;;;;22.10;21.00;;;;;;;;;;5024713;28;20201;-79
2023/03/27 12:49:04;;;;;;;22.60;21.40;;;;;;;;;;5026475;28;20480;-83
2023/03/27 12:51:38;;;;;;;22.57;21.07;;;;;;;;;;5025767;28;20429;-79
2023/03/27 12:54:22;;;;;;;21.47;20.30;;;;;;;;;;5026771;28;20482;-79
2023/03/27 12:56:50;;;;;;;21.80;20.40;;;;;;;;;;5025911;28;20446;-80
2023/03/27 12:59:22;;;;;;;20.90;19.77;;;;;;;;;;5027832;28;20463;-80
2023/03/27 13:02:04;;;;;;;20.77;19.40;;;;;;;;;;5028126;28;20459;-79
2023/03/27 13:04:42;;;;;;;19.90;18.93;;;;;;;;;;5023983;28;20208;-80
2023/03/27 13:07:13;;;;;;;19.57;18.47;;;;;;;;;;5026614;28;20420;-80
2023/03/27 13:09:46;;;;;;;20.30;19.30;;;;;;;;;;5025827;28;20466;-83
2023/03/27 13:12:28;;;;;;;19.80;18.50;;;;;;;;;;5023851;28;20496;-86
2023/03/27 13:15:05;;;;;;;20.65;19.40;;;;;;;;;;5025153;28;20425;-80
2023/03/27 13:17:41;;;;;;;20.90;19.80;;;;;;;;;;5024846;28;20220;-80
2023/03/27 13:20:15;;;;;;;20.25;19.15;;;;;;;;;;5024703;28;20248;-80
2023/03/27 13:22:49;;;;;;;20.42;19.23;;;;;;;;;;5038887;28;20198;-80
2023/03/27 13:25:25;;;;;;;20.75;19.45;;;;;;;;;;5039602;28;20219;-80
2023/03/27 13:28:07;;;;;;;20.37;19.23;;;;;;;;;;5035025;28;20229;-80
2023/03/27 13:30:46;;;;;;;20.58;19.35;;;;;;;;;;5027589;28;20974;-80
2023/03/27 13:33:18;;;;;;;21.00;19.70;;;;;;;;;;5028325;28;20293;-80
2023/03/27 13:35:59;;;;;;;21.50;20.30;;;;;;;;;;5034029;28;20274;-86
2023/03/27 13:38:55;;;;;;;21.23;20.03;;;;;;;;;;5012303;28;20314;-80
2023/03/27 13:41:41;;;;;;;21.58;20.38;;;;;;;;;;5006697;28;20470;-79
2023/03/27 13:44:10;;;;;;;22.30;21.00;;;;;;;;;;5030336;28;20624;-80
2023/03/27 13:46:43;;;;;;;22.45;21.25;;;;;;;;;;5028828;28;20744;-79
2023/03/27 13:49:19;;;;;;;21.60;20.40;;;;;;;;;;5028734;28;20234;-79
2023/03/27 13:52:01;;;;;;;21.05;19.95;;;;;;;;;;5028445;28;20211;-80
2023/03/27 13:54:46;;;;;;;21.17;19.83;;;;;;;;;;5022525;28;20243;-83
2023/03/27 13:57:24;;;;;;;21.70;20.35;;;;;;;;;;5024292;28;20854;-87
2023/03/27 14:00:09;;;;;;;21.20;20.10;;;;;;;;;;5022223;28;20261;-81
2023/03/27 14:02:55;;;;;;;22.45;21.05;;;;;;;;;;5022466;28;20556;-80
2023/03/27 14:05:37;;;;;;;20.65;19.55;;;;;;;;;;5022433;28;20261;-81
2023/03/27 14:08:31;;;;;;;20.87;19.77;;;;;;;;;;5023931;28;20240;-80
2023/03/27 14:11:17;;;;;;;21.45;20.25;;;;;;;;;;5007125;28;20426;-81
2023/03/27 14:13:49;;;;;;;21.20;20.10;;;;;;;;;;5022573;28;20231;-84
2023/03/27 14:16:40;;;;;;;22.53;21.10;;;;;;;;;;5018910;28;20450;-84
2023/03/27 14:19:21;;;;;;;21.57;20.27;;;;;;;;;;5022200;28;20470;-84
2023/03/27 14:21:53;;;;;;;22.07;20.97;;;;;;;;;;5022563;28;20402;-84
2023/03/27 14:24:25;;;;;;;20.65;19.55;;;;;;;;;;5021225;28;20506;-82
2023/03/27 14:26:53;;;;;;;21.08;19.88;;;;;;;;;;5018545;28;20217;-83
2023/03/27 14:29:21;;;;;;;20.77;19.67;;;;;;;;;;5021815;28;20350;-83
2023/03/27 14:31:48;;;;;;;20.98;19.88;;;;;;;;;;5040311;28;20200;-83
2023/03/27 14:34:21;;;;;;;21.00;19.90;;;;;;;;;;5039726;28;20625;-83